createdAt,value
2019-05-18T00:00:45.476Z,93387.97
2019-05-18T00:03:14.161Z,93378.95
2019-05-18T00:05:42.850Z,93382.16
2019-05-18T00:08:11.680Z,93384.02
2019-05-18T00:10:40.327Z,93385.27
2019-05-18T00:13:09.315Z,93381.23
2019-05-18T00:15:38.000Z,93384.08
2019-05-18T00:18:06.703Z,93385.83
2019-05-18T00:20:35.477Z,93374.27
2019-05-18T00:23:04.148Z,93381.88
2019-05-18T00:25:32.953Z,93376.00
2019-05-18T00:28:01.648Z,93365.64
2019-05-18T00:30:31.846Z,93369.95
2019-05-18T00:33:00.556Z,93366.62
2019-05-18T00:35:29.338Z,93362.52
2019-05-18T00:37:58.030Z,93362.40
2019-05-18T00:40:26.812Z,93365.13
2019-05-18T00:42:56.367Z,93364.17
2019-05-18T00:45:24.952Z,93365.19
2019-05-18T00:47:53.691Z,93353.62
2019-05-18T00:50:23.920Z,93359.87
2019-05-18T00:52:52.602Z,93355.33
2019-05-18T00:55:21.795Z,93359.55
2019-05-18T00:57:50.495Z,93356.17
2019-05-18T01:00:19.472Z,93354.91
2019-05-18T01:02:48.274Z,93349.52
2019-05-18T01:05:17.059Z,93344.23
2019-05-18T01:07:45.852Z,93340.85
2019-05-18T01:10:14.733Z,93347.23
2019-05-18T01:12:43.526Z,93351.16
2019-05-18T01:15:12.441Z,93356.91
2019-05-18T01:17:56.167Z,93350.69
2019-05-18T01:20:11.720Z,93350.66
2019-05-18T01:22:42.092Z,93341.00
2019-05-18T01:25:11.170Z,93331.83
2019-05-18T01:27:39.841Z,93336.66
2019-05-18T01:30:10.806Z,93337.45
2019-05-18T01:32:39.568Z,93337.89
2019-05-18T01:35:08.682Z,93338.86
2019-05-18T01:37:37.467Z,93337.28
2019-05-18T01:40:07.793Z,93333.84
2019-05-18T01:42:36.572Z,93337.59
2019-05-18T01:45:16.983Z,93332.21
2019-05-18T01:47:39.223Z,93324.67
2019-05-18T01:50:08.680Z,93322.39
2019-05-18T01:52:37.460Z,93327.20
2019-05-18T01:55:06.663Z,93332.07
2019-05-18T01:57:35.352Z,93327.41
2019-05-18T02:00:05.385Z,93327.83
2019-05-18T02:02:34.149Z,93327.34
2019-05-18T02:05:03.051Z,93324.51
2019-05-18T02:07:31.725Z,93322.23
2019-05-18T02:10:00.405Z,93326.97
2019-05-18T02:12:29.119Z,93326.23
2019-05-18T02:14:58.065Z,93317.88
2019-05-18T02:17:26.777Z,93322.92
2019-05-18T02:19:55.464Z,93320.02
2019-05-18T02:22:24.253Z,93315.03
2019-05-18T02:24:53.041Z,93318.19
2019-05-18T02:27:21.662Z,93316.69
2019-05-18T02:29:50.835Z,93313.16
2019-05-18T02:32:19.627Z,93309.23
2019-05-18T02:34:48.311Z,93308.48
2019-05-18T02:37:17.093Z,93305.25
2019-05-18T02:39:45.984Z,93304.60
2019-05-18T02:42:14.682Z,93310.20
2019-05-18T02:44:43.401Z,93305.39
2019-05-18T02:47:12.159Z,93304.70
2019-05-18T02:49:40.789Z,93302.48
2019-05-18T02:52:09.520Z,93309.10
2019-05-18T02:54:38.181Z,93299.67
2019-05-18T02:57:06.899Z,93301.50
2019-05-18T02:59:35.688Z,93295.31
2019-05-18T03:02:04.468Z,93301.78
2019-05-18T03:04:33.428Z,93303.84
2019-05-18T03:07:02.195Z,93303.64
2019-05-18T03:09:30.849Z,93300.20
2019-05-18T03:11:59.634Z,93297.84
2019-05-18T03:14:28.414Z,93294.88
2019-05-18T03:16:57.211Z,93295.88
2019-05-18T03:19:25.894Z,93295.59
2019-05-18T03:21:54.685Z,93291.58
2019-05-18T03:24:23.368Z,93287.45
2019-05-18T03:26:52.153Z,93289.48
2019-05-18T03:29:20.841Z,93295.32
2019-05-18T03:31:49.680Z,93297.39
2019-05-18T03:34:18.769Z,93294.02
2019-05-18T03:36:48.238Z,93292.95
2019-05-18T03:39:17.232Z,93290.72
2019-05-18T03:41:45.905Z,93293.12
2019-05-18T03:44:15.010Z,93297.09
2019-05-18T03:46:43.791Z,93295.45
2019-05-18T03:49:26.030Z,93297.53
2019-05-18T03:51:42.915Z,93291.22
2019-05-18T03:54:11.696Z,93297.03
2019-05-18T03:56:40.483Z,93302.93
2019-05-18T03:59:09.281Z,93294.45
2019-05-18T04:01:38.067Z,93289.97
2019-05-18T04:04:06.853Z,93288.14
2019-05-18T04:06:35.651Z,93291.65
2019-05-18T04:09:05.801Z,93290.07
2019-05-18T04:11:34.460Z,93290.28
2019-05-18T04:14:08.126Z,93290.53
2019-05-18T04:16:34.911Z,93289.45
2019-05-18T04:19:03.793Z,93292.19
2019-05-18T04:21:32.478Z,93291.09
2019-05-18T04:24:01.172Z,93291.45
2019-05-18T04:26:29.953Z,93294.63
2019-05-18T04:28:58.735Z,93284.45
2019-05-18T04:31:31.348Z,93282.78
2019-05-18T04:33:57.841Z,93277.66
2019-05-18T04:36:26.538Z,93278.66
2019-05-18T04:38:55.217Z,93273.64
2019-05-18T04:41:23.826Z,93275.01
2019-05-18T04:43:52.600Z,93274.08
2019-05-18T04:46:21.284Z,93278.92
2019-05-18T04:48:50.085Z,93278.98
2019-05-18T04:51:21.869Z,93282.15
2019-05-18T04:53:50.627Z,93276.51
2019-05-18T04:56:21.547Z,93266.70
2019-05-18T04:58:50.365Z,93273.11
2019-05-18T05:01:19.485Z,93265.96
2019-05-18T05:03:48.136Z,93269.61
2019-05-18T05:06:16.926Z,93265.34
2019-05-18T05:08:45.534Z,93263.90
2019-05-18T05:11:16.746Z,93270.09
2019-05-18T05:13:48.739Z,93265.23
2019-05-18T05:16:38.921Z,93264.20
2019-05-18T05:19:08.801Z,93268.06
2019-05-18T05:21:40.066Z,93268.33
2019-05-18T05:24:08.852Z,93265.22
2019-05-18T05:26:39.509Z,93259.55
2019-05-18T05:29:07.973Z,93261.32
2019-05-18T05:31:36.614Z,93256.36
2019-05-18T05:34:06.684Z,93261.38
2019-05-18T05:36:35.355Z,93262.50
2019-05-18T05:39:05.678Z,93265.53
2019-05-18T05:41:34.671Z,93259.88
2019-05-18T05:44:03.463Z,93260.55
2019-05-18T05:46:32.151Z,93258.76
2019-05-18T05:49:00.944Z,93262.13
2019-05-18T05:51:29.624Z,93263.70
2019-05-18T05:53:58.409Z,93258.28
2019-05-18T05:56:27.107Z,93260.20
2019-05-18T05:58:55.822Z,93260.73
2019-05-18T06:01:24.498Z,93255.97
2019-05-18T06:03:53.254Z,93258.66
2019-05-18T06:06:23.184Z,93260.70
2019-05-18T06:08:53.402Z,93257.20
2019-05-18T06:11:22.190Z,93258.94
2019-05-18T06:13:53.861Z,93256.91
2019-05-18T06:16:22.650Z,93254.53
2019-05-18T06:18:51.334Z,93252.16
2019-05-18T06:21:20.128Z,93251.12
2019-05-18T06:23:49.115Z,93245.62
2019-05-18T06:26:17.892Z,93246.79
2019-05-18T06:28:46.680Z,93245.66
2019-05-18T06:31:15.375Z,93249.42
2019-05-18T06:33:44.351Z,93246.16
2019-05-18T06:36:13.054Z,93242.88
2019-05-18T06:38:42.340Z,93250.03
2019-05-18T06:41:11.030Z,93252.61
2019-05-18T06:43:39.831Z,93247.47
2019-05-18T06:46:08.504Z,93242.88
2019-05-18T06:48:37.395Z,93243.26
2019-05-18T06:51:07.526Z,93243.94
2019-05-18T06:53:36.614Z,93242.31
2019-05-18T06:56:05.877Z,93245.10
2019-05-18T06:58:35.620Z,93245.31
2019-05-18T07:01:04.944Z,93243.66
2019-05-18T07:03:33.939Z,93245.57
2019-05-18T07:06:04.173Z,93240.72
2019-05-18T07:08:32.935Z,93242.92
2019-05-18T07:11:01.637Z,93237.86
2019-05-18T07:13:30.304Z,93239.73
2019-05-18T07:15:59.067Z,93234.50
2019-05-18T07:18:27.697Z,93229.96
2019-05-18T07:20:57.987Z,93235.73
2019-05-18T07:23:26.908Z,93235.95
2019-05-18T07:25:55.638Z,93231.56
2019-05-18T07:28:24.367Z,93232.87
2019-05-18T07:30:53.067Z,93230.47
2019-05-18T07:33:21.778Z,93228.60
2019-05-18T07:35:50.472Z,93231.77
2019-05-18T07:38:19.191Z,93221.97
2019-05-18T07:40:47.850Z,93212.17
2019-05-18T07:43:16.535Z,93209.98
2019-05-18T07:45:45.262Z,93211.13
2019-05-18T07:48:13.933Z,93208.02
2019-05-18T07:50:42.871Z,93210.36
2019-05-18T07:53:14.642Z,93210.81
2019-05-18T07:55:43.512Z,93213.16
2019-05-18T07:58:12.672Z,93213.30
2019-05-18T08:00:43.171Z,93216.43
2019-05-18T08:03:11.888Z,93211.80
2019-05-18T08:05:40.558Z,93209.61
2019-05-18T08:08:09.237Z,93204.12
2019-05-18T08:10:43.505Z,93199.91
2019-05-18T08:13:10.980Z,93205.89
2019-05-18T08:15:39.605Z,93196.61
2019-05-18T08:18:08.275Z,93194.99
2019-05-18T08:20:37.121Z,93191.43
2019-05-18T08:23:05.800Z,93205.88
2019-05-18T08:25:34.433Z,93206.69
2019-05-18T08:28:03.103Z,93198.12
2019-05-18T08:30:31.786Z,93196.45
2019-05-18T08:33:00.491Z,93197.69
2019-05-18T08:35:29.154Z,93199.43
2019-05-18T08:37:57.846Z,93200.63
2019-05-18T08:40:26.481Z,93211.67
2019-05-18T08:42:55.175Z,93206.27
2019-05-18T08:45:25.292Z,93203.00
2019-05-18T08:47:53.981Z,93199.73
2019-05-18T08:50:22.604Z,93200.69
2019-05-18T08:52:51.298Z,93203.03
2019-05-18T08:55:20.038Z,93193.89
2019-05-18T08:57:48.719Z,93178.02
2019-05-18T09:00:17.839Z,93200.92
2019-05-18T09:02:46.470Z,93201.74
2019-05-18T09:05:15.372Z,93199.52
2019-05-18T09:07:43.994Z,93200.19
2019-05-18T09:10:15.850Z,93206.22
2019-05-18T09:12:44.569Z,93199.67
2019-05-18T09:15:14.937Z,93213.72
2019-05-18T09:17:43.669Z,93206.76
2019-05-18T09:20:12.671Z,93202.34
2019-05-18T09:22:41.270Z,93196.98
2019-05-18T09:25:10.586Z,93218.77
2019-05-18T09:27:39.276Z,93209.48
2019-05-18T09:30:09.100Z,93215.41
2019-05-18T09:32:37.998Z,93204.49
2019-05-18T09:35:09.577Z,93219.47
2019-05-18T09:37:38.264Z,93209.95
2019-05-18T09:40:10.249Z,93222.30
2019-05-18T09:42:41.982Z,93221.81
2019-05-18T09:45:11.197Z,93226.02
2019-05-18T09:47:39.892Z,93224.27
2019-05-18T09:50:08.904Z,93219.22
2019-05-18T09:52:46.126Z,93219.71
2019-05-18T09:55:10.966Z,93226.36
2019-05-18T09:57:39.650Z,93227.28
2019-05-18T10:00:10.568Z,93224.91
2019-05-18T10:02:39.679Z,93228.69
2019-05-18T10:05:08.389Z,93227.05
2019-05-18T10:07:37.192Z,93216.28
2019-05-18T10:10:09.843Z,93227.77
2019-05-18T10:12:38.666Z,93224.75
2019-05-18T10:15:11.271Z,93225.79
2019-05-18T10:17:39.950Z,93211.81
2019-05-18T10:20:12.460Z,93215.63
2019-05-18T10:22:53.421Z,93219.09
2019-05-18T10:25:11.902Z,93214.17
2019-05-18T10:27:40.623Z,93215.53
2019-05-18T10:30:09.964Z,93220.58
2019-05-18T10:32:38.696Z,93218.34
2019-05-18T10:35:07.971Z,93220.09
2019-05-18T10:37:36.659Z,93207.41
2019-05-18T10:40:09.926Z,93213.04
2019-05-18T10:42:38.607Z,93217.09
2019-05-18T10:45:07.456Z,93208.84
2019-05-18T10:47:38.154Z,93216.31
2019-05-18T10:50:07.381Z,93212.45
2019-05-18T10:52:36.128Z,93209.72
2019-05-18T10:55:07.274Z,93210.94
2019-05-18T10:57:36.117Z,93211.42
2019-05-18T11:00:10.387Z,93216.60
2019-05-18T11:02:39.155Z,93219.00
2019-05-18T11:05:08.043Z,93214.26
2019-05-18T11:07:36.649Z,93210.03
2019-05-18T11:10:09.570Z,93210.41
2019-05-18T11:12:38.271Z,93208.95
2019-05-18T11:15:08.961Z,93214.22
2019-05-18T11:17:37.674Z,93221.91
2019-05-18T11:20:08.099Z,93220.20
2019-05-18T11:22:36.805Z,93209.63
2019-05-18T11:25:07.379Z,93212.69
2019-05-18T11:27:36.006Z,93213.82
2019-05-18T11:30:06.995Z,93223.56
2019-05-18T11:32:35.670Z,93221.84
2019-05-18T11:35:06.430Z,93227.42
2019-05-18T11:37:35.046Z,93222.84
2019-05-18T11:40:05.607Z,93223.95
2019-05-18T11:42:34.215Z,93220.91
2019-05-18T11:45:02.902Z,93231.05
2019-05-18T11:47:31.578Z,93229.95
2019-05-18T11:50:00.226Z,93236.98
2019-05-18T11:52:28.903Z,93228.47
2019-05-18T11:54:57.524Z,93238.10
2019-05-18T11:57:26.218Z,93230.66
2019-05-18T11:59:54.920Z,93239.00
2019-05-18T12:02:23.617Z,93234.44
2019-05-18T12:04:52.285Z,93237.77
2019-05-18T12:07:20.906Z,93247.02
2019-05-18T12:09:49.579Z,93241.48
2019-05-18T12:12:18.293Z,93248.43
2019-05-18T12:14:47.306Z,93249.75
2019-05-18T12:17:15.982Z,93246.19
2019-05-18T12:19:44.606Z,93241.22
2019-05-18T12:22:13.396Z,93241.48
2019-05-18T12:24:42.124Z,93231.23
2019-05-18T12:27:11.013Z,93236.47
2019-05-18T12:29:39.631Z,93230.92
2019-05-18T12:32:08.388Z,93226.31
2019-05-18T12:34:37.021Z,93220.07
2019-05-18T12:37:05.728Z,93217.94
2019-05-18T12:39:34.373Z,93219.65
2019-05-18T12:42:03.050Z,93221.98
2019-05-18T12:44:31.701Z,93225.33
2019-05-18T12:47:00.442Z,93222.84
2019-05-18T12:49:29.107Z,93201.74
2019-05-18T12:51:57.821Z,93211.09
2019-05-18T12:54:29.592Z,93203.55
2019-05-18T12:56:56.852Z,93207.17
2019-05-18T12:59:25.550Z,93213.23
2019-05-18T13:01:54.231Z,93212.30
2019-05-18T13:04:22.933Z,93206.31
2019-05-18T13:06:51.653Z,93199.20
2019-05-18T13:09:23.265Z,93199.25
2019-05-18T13:11:50.715Z,93197.92
2019-05-18T13:14:19.464Z,93192.17
2019-05-18T13:16:48.128Z,93187.27
2019-05-18T13:19:16.800Z,93184.88
2019-05-18T13:21:45.414Z,93180.17
2019-05-18T13:24:14.096Z,93184.19
2019-05-18T13:26:42.817Z,93177.67
2019-05-18T13:29:11.423Z,93175.83
2019-05-18T13:31:40.143Z,93171.92
2019-05-18T13:34:08.983Z,93175.75
2019-05-18T13:36:37.682Z,93171.04
2019-05-18T13:39:08.041Z,93164.36
2019-05-18T13:41:36.726Z,93165.45
2019-05-18T13:44:06.668Z,93166.98
2019-05-18T13:46:35.328Z,93160.01
2019-05-18T13:49:03.963Z,93164.07
2019-05-18T13:51:32.609Z,93163.73
2019-05-18T13:54:01.296Z,93161.15
2019-05-18T13:56:29.919Z,93165.67
2019-05-18T13:58:58.642Z,93162.01
2019-05-18T14:01:27.324Z,93157.85
2019-05-18T14:03:55.968Z,93139.63
2019-05-18T14:06:24.640Z,93151.61
2019-05-18T14:08:53.348Z,93155.93
2019-05-18T14:11:22.488Z,93146.19
2019-05-18T14:13:51.288Z,93148.09
2019-05-18T14:16:19.955Z,93138.84
2019-05-18T14:18:48.655Z,93134.20
2019-05-18T14:21:17.274Z,93140.34
2019-05-18T14:23:45.959Z,93137.26
2019-05-18T14:26:14.661Z,93131.80
2019-05-18T14:28:43.283Z,93132.25
2019-05-18T14:31:11.953Z,93134.73
2019-05-18T14:33:40.632Z,93131.34
2019-05-18T14:36:09.280Z,93131.86
2019-05-18T14:38:38.533Z,93130.69
2019-05-18T14:41:07.280Z,93128.09
2019-05-18T14:43:35.933Z,93129.80
2019-05-18T14:46:05.938Z,93126.46
2019-05-18T14:48:34.615Z,93131.67
2019-05-18T14:51:03.407Z,93128.24
2019-05-18T14:53:32.106Z,93128.11
2019-05-18T14:56:00.963Z,93123.74
2019-05-18T14:58:29.729Z,93124.58
2019-05-18T15:00:58.715Z,93129.56
2019-05-18T15:03:27.595Z,93128.06
2019-05-18T15:05:56.375Z,93125.97
2019-05-18T15:08:25.120Z,93132.38
2019-05-18T15:10:53.817Z,93131.62
2019-05-18T15:13:22.497Z,93124.16
2019-05-18T15:15:52.781Z,93133.38
2019-05-18T15:18:21.549Z,93128.05
2019-05-18T15:20:50.158Z,93132.51
2019-05-18T15:23:18.861Z,93123.61
2019-05-18T15:25:50.537Z,93129.40
2019-05-18T15:28:18.302Z,93129.53
2019-05-18T15:30:47.034Z,93131.25
2019-05-18T15:33:15.761Z,93128.83
2019-05-18T15:35:46.559Z,93137.82
2019-05-18T15:38:14.869Z,93132.52
2019-05-18T15:40:43.498Z,93127.09
2019-05-18T15:43:12.211Z,93128.51
2019-05-18T15:45:41.045Z,93133.98
2019-05-18T15:48:09.701Z,93130.88
2019-05-18T15:50:38.338Z,93129.19
2019-05-18T15:53:07.088Z,93119.84
2019-05-18T15:55:35.711Z,93121.23
2019-05-18T15:58:04.446Z,93119.70
2019-05-18T16:00:33.095Z,93122.18
2019-05-18T16:03:01.762Z,93129.23
2019-05-18T16:05:30.396Z,93115.89
2019-05-18T16:07:59.191Z,93119.87
2019-05-18T16:10:28.027Z,93121.08
2019-05-18T16:12:56.843Z,93121.30
2019-05-18T16:15:25.588Z,93123.18
2019-05-18T16:17:58.179Z,93121.97
2019-05-18T16:20:26.339Z,93120.30
2019-05-18T16:22:55.051Z,93119.60
2019-05-18T16:25:23.689Z,93116.41
2019-05-18T16:27:52.393Z,93124.55
2019-05-18T16:30:21.302Z,93106.11
2019-05-18T16:32:49.928Z,93118.45
2019-05-18T16:35:18.677Z,93124.06
2019-05-18T16:37:47.383Z,93117.50
2019-05-18T16:40:16.312Z,93119.97
2019-05-18T16:42:46.698Z,93116.51
2019-05-18T16:45:15.602Z,93119.88
2019-05-18T16:47:44.400Z,93120.84
2019-05-18T16:50:13.532Z,93120.41
2019-05-18T16:52:42.496Z,93123.73
2019-05-18T16:55:11.665Z,93123.43
2019-05-18T16:57:40.411Z,93130.88
2019-05-18T17:00:11.192Z,93122.42
2019-05-18T17:02:39.996Z,93122.94
2019-05-18T17:05:09.165Z,93119.77
2019-05-18T17:07:37.888Z,93117.94
2019-05-18T17:10:06.822Z,93113.45
2019-05-18T17:12:35.543Z,93119.50
2019-05-18T17:15:06.060Z,93119.94
2019-05-18T17:17:35.445Z,93117.01
2019-05-18T17:20:05.327Z,93119.11
2019-05-18T17:22:34.068Z,93118.74
2019-05-18T17:25:02.729Z,93114.48
2019-05-18T17:27:31.327Z,93117.11
2019-05-18T17:30:00.060Z,93125.23
2019-05-18T17:32:28.680Z,93123.75
2019-05-18T17:34:57.380Z,93123.55
2019-05-18T17:37:25.988Z,93129.06
2019-05-18T17:39:54.616Z,93131.19
2019-05-18T17:42:23.693Z,93130.19
2019-05-18T17:44:52.398Z,93128.47
2019-05-18T17:47:21.934Z,93132.09
2019-05-18T17:49:50.549Z,93131.74
2019-05-18T17:52:19.232Z,93129.33
2019-05-18T17:54:47.846Z,93136.84
2019-05-18T17:57:16.537Z,93140.19
2019-05-18T17:59:45.300Z,93139.55
2019-05-18T18:02:13.975Z,93140.01
2019-05-18T18:04:42.623Z,93143.82
2019-05-18T18:07:11.318Z,93145.03
2019-05-18T18:09:39.980Z,93143.97
2019-05-18T18:12:08.651Z,93146.84
2019-05-18T18:14:37.266Z,93144.59
2019-05-18T18:17:05.974Z,93139.17
2019-05-18T18:19:34.595Z,93143.11
2019-05-18T18:22:03.272Z,93147.04
2019-05-18T18:24:31.970Z,93152.34
2019-05-18T18:27:00.661Z,93152.91
2019-05-18T18:29:29.283Z,93158.49
2019-05-18T18:31:57.941Z,93160.80
2019-05-18T18:34:26.675Z,93168.47
2019-05-18T18:36:55.314Z,93176.62
2019-05-18T18:39:23.996Z,93183.69
2019-05-18T18:41:52.707Z,93190.16
2019-05-18T18:44:23.137Z,93193.84
2019-05-18T18:46:51.810Z,93194.57
2019-05-18T18:49:20.582Z,93202.41
2019-05-18T18:51:49.267Z,93207.51
2019-05-18T18:54:17.969Z,93205.92
2019-05-18T18:56:47.274Z,93213.83
2019-05-18T18:59:15.953Z,93214.38
2019-05-18T19:01:46.392Z,93219.05
2019-05-18T19:04:18.155Z,93215.14
2019-05-18T19:06:47.047Z,93220.17
2019-05-18T19:09:15.813Z,93215.42
2019-05-18T19:11:44.599Z,93215.52
2019-05-18T19:14:14.329Z,93218.75
2019-05-18T19:16:43.072Z,93223.45
2019-05-18T19:19:11.863Z,93231.35
2019-05-18T19:21:41.334Z,93238.34
2019-05-18T19:24:10.454Z,93236.59
2019-05-18T19:26:40.838Z,93238.44
2019-05-18T19:29:09.771Z,93250.98
2019-05-18T19:31:38.504Z,93256.50
2019-05-18T19:34:07.187Z,93252.61
2019-05-18T19:36:35.968Z,93258.63
2019-05-18T19:39:06.172Z,93252.62
2019-05-18T19:41:34.870Z,93254.97
2019-05-18T19:44:03.556Z,93249.77
2019-05-18T19:46:32.340Z,93258.13
2019-05-18T19:49:02.592Z,93260.98
2019-05-18T19:51:31.285Z,93254.20
2019-05-18T19:54:00.024Z,93254.77
2019-05-18T19:56:28.682Z,93255.28
2019-05-18T19:58:57.438Z,93258.69
2019-05-18T20:01:26.227Z,93262.05
2019-05-18T20:03:57.004Z,93268.06
2019-05-18T20:06:25.768Z,93260.25
2019-05-18T20:08:54.500Z,93263.13
2019-05-18T20:11:23.204Z,93263.37
2019-05-18T20:13:51.961Z,93268.88
2019-05-18T20:16:20.886Z,93272.55
2019-05-18T20:18:51.244Z,93266.80
2019-05-18T20:21:19.975Z,93272.03
2019-05-18T20:23:49.995Z,93264.97
2019-05-18T20:26:18.706Z,93267.81
2019-05-18T20:28:47.413Z,93265.50
2019-05-18T20:31:16.053Z,93265.24
2019-05-18T20:33:44.785Z,93259.75
2019-05-18T20:36:13.562Z,93265.48
2019-05-18T20:38:42.276Z,93264.18
2019-05-18T20:41:13.011Z,93265.72
2019-05-18T20:43:41.673Z,93260.27
2019-05-18T20:46:10.370Z,93266.78
2019-05-18T20:48:39.007Z,93264.16
2019-05-18T20:51:07.702Z,93264.44
2019-05-18T20:53:36.394Z,93260.02
2019-05-18T20:56:05.062Z,93264.45
2019-05-18T20:58:39.995Z,93263.42
2019-05-18T21:01:04.246Z,93264.97
2019-05-18T21:03:32.954Z,93260.00
2019-05-18T21:06:01.722Z,93261.31
2019-05-18T21:08:30.367Z,93264.95
2019-05-18T21:11:00.616Z,93268.84
2019-05-18T21:13:29.266Z,93267.56
2019-05-18T21:15:57.964Z,93264.42
2019-05-18T21:18:26.620Z,93270.67
2019-05-18T21:20:55.302Z,93274.05
2019-05-18T21:23:24.003Z,93274.30
2019-05-18T21:25:52.652Z,93264.90
2019-05-18T21:28:21.412Z,93257.60
2019-05-18T21:30:50.053Z,93253.17
2019-05-18T21:33:18.770Z,93251.10
2019-05-18T21:35:48.957Z,93252.84
2019-05-18T21:38:17.647Z,93243.94
2019-05-18T21:40:46.278Z,93249.39
2019-05-18T21:43:14.975Z,93235.02
2019-05-18T21:45:43.648Z,93245.21
2019-05-18T21:48:12.559Z,93242.07
2019-05-18T21:50:41.248Z,93234.78
2019-05-18T21:53:09.953Z,93241.78
2019-05-18T21:55:38.580Z,93238.59
2019-05-18T21:58:07.274Z,93234.61
2019-05-18T22:00:35.911Z,93231.28
2019-05-18T22:03:04.703Z,93232.07
2019-05-18T22:05:33.394Z,93231.56
2019-05-18T22:08:02.034Z,93225.92
2019-05-18T22:10:30.735Z,93233.37
2019-05-18T22:12:59.378Z,93226.80
2019-05-18T22:15:28.172Z,93225.99
2019-05-18T22:18:05.583Z,93223.10
2019-05-18T22:20:42.123Z,93223.05
2019-05-18T22:23:06.257Z,93226.96
2019-05-18T22:25:34.968Z,93219.41
2019-05-18T22:28:03.713Z,93221.48
2019-05-18T22:30:32.469Z,93218.93
2019-05-18T22:33:01.122Z,93210.09
2019-05-18T22:35:29.845Z,93210.87
2019-05-18T22:37:58.505Z,93205.88
2019-05-18T22:40:27.200Z,93208.77
2019-05-18T22:42:55.834Z,93210.03
2019-05-18T22:45:24.538Z,93212.40
2019-05-18T22:47:53.253Z,93209.23
2019-05-18T22:50:23.437Z,93208.44
2019-05-18T22:52:53.710Z,93217.02
2019-05-18T22:55:22.410Z,93217.57
2019-05-18T22:57:52.536Z,93212.37
2019-05-18T23:00:21.339Z,93209.95
2019-05-18T23:02:51.549Z,93208.05
2019-05-18T23:05:20.256Z,93208.01
2019-05-18T23:07:48.944Z,93202.33
2019-05-18T23:10:17.659Z,93193.17
2019-05-18T23:12:46.372Z,93195.45
2019-05-18T23:15:15.061Z,93192.17
2019-05-18T23:17:43.763Z,93193.41
2019-05-18T23:20:12.394Z,93189.98
2019-05-18T23:22:42.564Z,93184.27
2019-05-18T23:25:11.435Z,93186.27
2019-05-18T23:27:40.115Z,93191.94
2019-05-18T23:30:09.361Z,93186.07
2019-05-18T23:32:38.109Z,93181.96
2019-05-18T23:35:07.065Z,93173.93
2019-05-18T23:37:35.734Z,93169.22
2019-05-18T23:40:06.409Z,93170.30
2019-05-18T23:42:35.079Z,93177.79
2019-05-18T23:45:08.385Z,93176.71
2019-05-18T23:47:38.159Z,93176.70
2019-05-18T23:50:07.261Z,93180.39
2019-05-18T23:52:37.574Z,93183.47
2019-05-18T23:55:07.182Z,93170.59
2019-05-18T23:57:35.986Z,93169.63
